sensor_id;sensor_type;location;lat;lon;timestamp;P1;durP1;ratioP1;P2;durP2;ratioP2
22186;SDS011;11259;52.146;12.844;2023-08-21T00:02:18;2.08;;;1.65;;
22186;SDS011;11259;52.146;12.844;2023-08-21T00:04:44;1.55;;;1.23;;
22186;SDS011;11259;52.146;12.844;2023-08-21T00:07:10;1.67;;;1.52;;
22186;SDS011;11259;52.146;12.844;2023-08-21T00:09:36;3.22;;;1.55;;
22186;SDS011;11259;52.146;12.844;2023-08-21T00:12:01;1.60;;;1.50;;
22186;SDS011;11259;52.146;12.844;2023-08-21T00:14:26;1.73;;;1.60;;
22186;SDS011;11259;52.146;12.844;2023-08-21T00:16:52;2.60;;;2.10;;
22186;SDS011;11259;52.146;12.844;2023-08-21T00:19:17;3.22;;;1.75;;
22186;SDS011;11259;52.146;12.844;2023-08-21T00:21:42;2.17;;;1.80;;
22186;SDS011;11259;52.146;12.844;2023-08-21T00:24:09;1.65;;;1.50;;
22186;SDS011;11259;52.146;12.844;2023-08-21T00:26:34;2.42;;;1.70;;
22186;SDS011;11259;52.146;12.844;2023-08-21T00:29:00;1.77;;;1.40;;
22186;SDS011;11259;52.146;12.844;2023-08-21T00:31:25;2.30;;;1.65;;
22186;SDS011;11259;52.146;12.844;2023-08-21T00:33:50;1.85;;;1.67;;
22186;SDS011;11259;52.146;12.844;2023-08-21T00:36:16;1.88;;;1.55;;
22186;SDS011;11259;52.146;12.844;2023-08-21T00:38:41;1.63;;;1.27;;
22186;SDS011;11259;52.146;12.844;2023-08-21T00:41:08;1.60;;;1.45;;
22186;SDS011;11259;52.146;12.844;2023-08-21T00:43:33;2.75;;;2.38;;
22186;SDS011;11259;52.146;12.844;2023-08-21T00:45:58;2.00;;;1.67;;
22186;SDS011;11259;52.146;12.844;2023-08-21T00:48:24;1.50;;;1.30;;
22186;SDS011;11259;52.146;12.844;2023-08-21T00:50:49;1.45;;;1.35;;
22186;SDS011;11259;52.146;12.844;2023-08-21T00:53:15;1.33;;;1.10;;
22186;SDS011;11259;52.146;12.844;2023-08-21T00:55:40;2.22;;;1.33;;
22186;SDS011;11259;52.146;12.844;2023-08-21T00:58:07;2.03;;;1.67;;
22186;SDS011;11259;52.146;12.844;2023-08-21T01:00:33;1.33;;;1.23;;
22186;SDS011;11259;52.146;12.844;2023-08-21T01:02:59;1.60;;;1.25;;
22186;SDS011;11259;52.146;12.844;2023-08-21T01:05:24;2.75;;;1.75;;
22186;SDS011;11259;52.146;12.844;2023-08-21T01:07:51;1.95;;;1.20;;
22186;SDS011;11259;52.146;12.844;2023-08-21T01:10:20;1.48;;;1.38;;
22186;SDS011;11259;52.146;12.844;2023-08-21T01:12:50;2.13;;;1.67;;
22186;SDS011;11259;52.146;12.844;2023-08-21T01:15:19;1.90;;;1.33;;
22186;SDS011;11259;52.146;12.844;2023-08-21T01:17:45;4.88;;;2.42;;
22186;SDS011;11259;52.146;12.844;2023-08-21T01:20:11;2.08;;;1.40;;
22186;SDS011;11259;52.146;12.844;2023-08-21T01:22:37;1.73;;;1.33;;
22186;SDS011;11259;52.146;12.844;2023-08-21T01:25:04;2.22;;;1.98;;
22186;SDS011;11259;52.146;12.844;2023-08-21T01:27:30;1.95;;;1.65;;
22186;SDS011;11259;52.146;12.844;2023-08-21T01:29:55;1.83;;;1.60;;
22186;SDS011;11259;52.146;12.844;2023-08-21T01:32:21;2.45;;;2.05;;
22186;SDS011;11259;52.146;12.844;2023-08-21T01:34:49;1.63;;;1.52;;
22186;SDS011;11259;52.146;12.844;2023-08-21T01:37:15;1.58;;;1.20;;
22186;SDS011;11259;52.146;12.844;2023-08-21T01:39:41;5.75;;;1.98;;
22186;SDS011;11259;52.146;12.844;2023-08-21T01:42:08;2.47;;;1.90;;
22186;SDS011;11259;52.146;12.844;2023-08-21T01:44:33;2.50;;;1.98;;
22186;SDS011;11259;52.146;12.844;2023-08-21T01:46:59;1.65;;;1.45;;
22186;SDS011;11259;52.146;12.844;2023-08-21T01:49:24;1.92;;;1.80;;
22186;SDS011;11259;52.146;12.844;2023-08-21T01:51:49;1.88;;;1.73;;
22186;SDS011;11259;52.146;12.844;2023-08-21T01:54:15;2.15;;;1.85;;
22186;SDS011;11259;52.146;12.844;2023-08-21T01:56:40;2.92;;;1.60;;
22186;SDS011;11259;52.146;12.844;2023-08-21T01:59:07;2.08;;;1.58;;
22186;SDS011;11259;52.146;12.844;2023-08-21T02:01:32;1.67;;;1.58;;
22186;SDS011;11259;52.146;12.844;2023-08-21T02:03:58;2.83;;;1.92;;
22186;SDS011;11259;52.146;12.844;2023-08-21T02:06:23;1.48;;;1.38;;
22186;SDS011;11259;52.146;12.844;2023-08-21T02:08:48;1.58;;;1.48;;
22186;SDS011;11259;52.146;12.844;2023-08-21T02:11:14;2.38;;;2.05;;
22186;SDS011;11259;52.146;12.844;2023-08-21T02:13:39;1.65;;;1.50;;
22186;SDS011;11259;52.146;12.844;2023-08-21T02:16:06;2.10;;;1.50;;
22186;SDS011;11259;52.146;12.844;2023-08-21T02:18:31;2.15;;;1.92;;
22186;SDS011;11259;52.146;12.844;2023-08-21T02:20:56;2.13;;;1.65;;
22186;SDS011;11259;52.146;12.844;2023-08-21T02:23:22;1.40;;;1.30;;
22186;SDS011;11259;52.146;12.844;2023-08-21T02:25:47;3.35;;;1.75;;
22186;SDS011;11259;52.146;12.844;2023-08-21T02:28:12;1.40;;;1.30;;
22186;SDS011;11259;52.146;12.844;2023-08-21T02:30:39;2.45;;;2.03;;
22186;SDS011;11259;52.146;12.844;2023-08-21T02:33:06;1.60;;;1.40;;
22186;SDS011;11259;52.146;12.844;2023-08-21T02:35:31;1.98;;;1.80;;
22186;SDS011;11259;52.146;12.844;2023-08-21T02:37:57;2.65;;;1.90;;
22186;SDS011;11259;52.146;12.844;2023-08-21T02:40:22;3.17;;;1.20;;
22186;SDS011;11259;52.146;12.844;2023-08-21T02:42:47;1.52;;;1.38;;
22186;SDS011;11259;52.146;12.844;2023-08-21T02:45:13;1.95;;;1.60;;
22186;SDS011;11259;52.146;12.844;2023-08-21T02:47:38;1.67;;;1.40;;
22186;SDS011;11259;52.146;12.844;2023-08-21T02:50:06;3.58;;;2.38;;
22186;SDS011;11259;52.146;12.844;2023-08-21T02:52:32;1.98;;;1.58;;
22186;SDS011;11259;52.146;12.844;2023-08-21T02:54:58;1.98;;;1.70;;
22186;SDS011;11259;52.146;12.844;2023-08-21T02:57:24;1.92;;;1.70;;
22186;SDS011;11259;52.146;12.844;2023-08-21T02:59:50;2.53;;;1.70;;
22186;SDS011;11259;52.146;12.844;2023-08-21T03:02:15;3.20;;;2.10;;
22186;SDS011;11259;52.146;12.844;2023-08-21T03:04:40;1.58;;;1.48;;
22186;SDS011;11259;52.146;12.844;2023-08-21T03:07:07;1.40;;;1.30;;
22186;SDS011;11259;52.146;12.844;2023-08-21T03:09:32;2.20;;;1.95;;
22186;SDS011;11259;52.146;12.844;2023-08-21T03:11:58;2.08;;;1.88;;
22186;SDS011;11259;52.146;12.844;2023-08-21T03:14:24;2.35;;;2.13;;
22186;SDS011;11259;52.146;12.844;2023-08-21T03:16:49;1.90;;;1.73;;
22186;SDS011;11259;52.146;12.844;2023-08-21T03:19:14;1.70;;;1.60;;
22186;SDS011;11259;52.146;12.844;2023-08-21T03:21:40;3.05;;;1.83;;
22186;SDS011;11259;52.146;12.844;2023-08-21T03:24:06;1.58;;;1.40;;
22186;SDS011;11259;52.146;12.844;2023-08-21T03:26:32;4.45;;;1.85;;
22186;SDS011;11259;52.146;12.844;2023-08-21T03:28:57;2.08;;;1.50;;
22186;SDS011;11259;52.146;12.844;2023-08-21T03:31:22;2.40;;;1.65;;
22186;SDS011;11259;52.146;12.844;2023-08-21T03:33:48;2.83;;;1.90;;
22186;SDS011;11259;52.146;12.844;2023-08-21T03:36:13;1.65;;;1.55;;
22186;SDS011;11259;52.146;12.844;2023-08-21T03:38:38;4.55;;;1.40;;
22186;SDS011;11259;52.146;12.844;2023-08-21T03:41:05;4.40;;;2.63;;
22186;SDS011;11259;52.146;12.844;2023-08-21T03:43:30;1.77;;;1.60;;
22186;SDS011;11259;52.146;12.844;2023-08-21T03:45:56;2.00;;;1.80;;
22186;SDS011;11259;52.146;12.844;2023-08-21T03:48:21;1.73;;;1.55;;
22186;SDS011;11259;52.146;12.844;2023-08-21T03:50:46;1.88;;;1.58;;
22186;SDS011;11259;52.146;12.844;2023-08-21T03:53:12;4.22;;;1.63;;
22186;SDS011;11259;52.146;12.844;2023-08-21T03:55:37;2.03;;;1.55;;
22186;SDS011;11259;52.146;12.844;2023-08-21T03:58:04;3.17;;;2.20;;
22186;SDS011;11259;52.146;12.844;2023-08-21T04:00:29;1.90;;;1.70;;
22186;SDS011;11259;52.146;12.844;2023-08-21T04:02:54;1.90;;;1.67;;
22186;SDS011;11259;52.146;12.844;2023-08-21T04:05:20;2.97;;;1.98;;
22186;SDS011;11259;52.146;12.844;2023-08-21T04:07:45;2.35;;;2.00;;
22186;SDS011;11259;52.146;12.844;2023-08-21T04:10:10;2.60;;;1.70;;
22186;SDS011;11259;52.146;12.844;2023-08-21T04:12:36;2.03;;;1.60;;
22186;SDS011;11259;52.146;12.844;2023-08-21T04:15:03;4.53;;;2.63;;
22186;SDS011;11259;52.146;12.844;2023-08-21T04:17:28;3.10;;;1.38;;
22186;SDS011;11259;52.146;12.844;2023-08-21T04:19:54;1.98;;;1.77;;
22186;SDS011;11259;52.146;12.844;2023-08-21T04:22:20;2.42;;;1.90;;
22186;SDS011;11259;52.146;12.844;2023-08-21T04:24:45;2.63;;;1.65;;
22186;SDS011;11259;52.146;12.844;2023-08-21T04:27:11;2.05;;;1.85;;
22186;SDS011;11259;52.146;12.844;2023-08-21T04:29:36;2.03;;;1.70;;
22186;SDS011;11259;52.146;12.844;2023-08-21T04:32:03;3.20;;;2.38;;
22186;SDS011;11259;52.146;12.844;2023-08-21T04:34:28;3.42;;;1.73;;
22186;SDS011;11259;52.146;12.844;2023-08-21T04:36:54;1.75;;;1.55;;
22186;SDS011;11259;52.146;12.844;2023-08-21T04:39:19;3.50;;;2.00;;
22186;SDS011;11259;52.146;12.844;2023-08-21T04:41:44;2.30;;;1.73;;
22186;SDS011;11259;52.146;12.844;2023-08-21T04:44:10;3.35;;;2.15;;
22186;SDS011;11259;52.146;12.844;2023-08-21T04:46:35;1.60;;;1.30;;
22186;SDS011;11259;52.146;12.844;2023-08-21T04:49:02;1.77;;;1.52;;
22186;SDS011;11259;52.146;12.844;2023-08-21T04:51:27;2.25;;;2.03;;
22186;SDS011;11259;52.146;12.844;2023-08-21T04:53:52;2.63;;;1.95;;
22186;SDS011;11259;52.146;12.844;2023-08-21T04:56:17;1.50;;;1.40;;
22186;SDS011;11259;52.146;12.844;2023-08-21T04:58:43;2.10;;;1.83;;
22186;SDS011;11259;52.146;12.844;2023-08-21T05:04:12;2.92;;;2.22;;
22186;SDS011;11259;52.146;12.844;2023-08-21T05:06:38;2.53;;;1.77;;
22186;SDS011;11259;52.146;12.844;2023-08-21T05:09:03;2.08;;;1.73;;
22186;SDS011;11259;52.146;12.844;2023-08-21T05:11:28;2.13;;;1.77;;
22186;SDS011;11259;52.146;12.844;2023-08-21T05:13:53;2.40;;;1.27;;
22186;SDS011;11259;52.146;12.844;2023-08-21T05:16:19;2.38;;;1.80;;
22186;SDS011;11259;52.146;12.844;2023-08-21T05:18:44;2.60;;;1.80;;
22186;SDS011;11259;52.146;12.844;2023-08-21T05:21:11;2.13;;;1.92;;
22186;SDS011;11259;52.146;12.844;2023-08-21T05:23:36;2.65;;;1.88;;
22186;SDS011;11259;52.146;12.844;2023-08-21T05:26:01;1.65;;;1.48;;
22186;SDS011;11259;52.146;12.844;2023-08-21T05:28:27;2.22;;;1.98;;
22186;SDS011;11259;52.146;12.844;2023-08-21T05:30:52;2.85;;;1.90;;
22186;SDS011;11259;52.146;12.844;2023-08-21T05:33:17;2.70;;;2.13;;
22186;SDS011;11259;52.146;12.844;2023-08-21T05:35:43;1.67;;;1.58;;
22186;SDS011;11259;52.146;12.844;2023-08-21T05:38:09;3.97;;;1.92;;
22186;SDS011;11259;52.146;12.844;2023-08-21T05:40:35;2.05;;;1.70;;
22186;SDS011;11259;52.146;12.844;2023-08-21T05:43:00;1.77;;;1.67;;
22186;SDS011;11259;52.146;12.844;2023-08-21T05:45:25;1.73;;;1.55;;
22186;SDS011;11259;52.146;12.844;2023-08-21T05:47:51;1.92;;;1.45;;
22186;SDS011;11259;52.146;12.844;2023-08-21T05:50:16;2.10;;;1.75;;
22186;SDS011;11259;52.146;12.844;2023-08-21T05:52:41;3.80;;;1.60;;
22186;SDS011;11259;52.146;12.844;2023-08-21T05:55:08;1.52;;;1.42;;
22186;SDS011;11259;52.146;12.844;2023-08-21T05:57:34;1.70;;;1.60;;
22186;SDS011;11259;52.146;12.844;2023-08-21T05:59:59;5.28;;;2.67;;
22186;SDS011;11259;52.146;12.844;2023-08-21T06:02:24;2.40;;;1.98;;
22186;SDS011;11259;52.146;12.844;2023-08-21T06:04:50;3.67;;;2.22;;
22186;SDS011;11259;52.146;12.844;2023-08-21T06:07:15;1.77;;;1.67;;
22186;SDS011;11259;52.146;12.844;2023-08-21T06:09:40;3.67;;;2.42;;
22186;SDS011;11259;52.146;12.844;2023-08-21T06:12:07;1.98;;;1.77;;
22186;SDS011;11259;52.146;12.844;2023-08-21T06:14:32;1.77;;;1.65;;
22186;SDS011;11259;52.146;12.844;2023-08-21T06:16:58;7.97;;;3.30;;
22186;SDS011;11259;52.146;12.844;2023-08-21T06:19:25;1.50;;;1.40;;
22186;SDS011;11259;52.146;12.844;2023-08-21T06:21:50;2.78;;;2.50;;
22186;SDS011;11259;52.146;12.844;2023-08-21T06:24:15;4.82;;;2.75;;
22186;SDS011;11259;52.146;12.844;2023-08-21T06:26:41;3.45;;;2.40;;
22186;SDS011;11259;52.146;12.844;2023-08-21T06:29:08;3.38;;;2.22;;
22186;SDS011;11259;52.146;12.844;2023-08-21T06:31:33;2.42;;;1.63;;
22186;SDS011;11259;52.146;12.844;2023-08-21T06:33:58;1.70;;;1.60;;
22186;SDS011;11259;52.146;12.844;2023-08-21T06:36:24;4.72;;;1.63;;
22186;SDS011;11259;52.146;12.844;2023-08-21T06:38:49;7.90;;;2.88;;
22186;SDS011;11259;52.146;12.844;2023-08-21T06:41:14;4.20;;;2.33;;
22186;SDS011;11259;52.146;12.844;2023-08-21T06:43:40;2.78;;;2.15;;
22186;SDS011;11259;52.146;12.844;2023-08-21T06:46:06;2.13;;;1.65;;
22186;SDS011;11259;52.146;12.844;2023-08-21T06:48:32;4.38;;;2.72;;
22186;SDS011;11259;52.146;12.844;2023-08-21T06:50:57;7.18;;;2.50;;
22186;SDS011;11259;52.146;12.844;2023-08-21T06:53:22;5.88;;;1.80;;
22186;SDS011;11259;52.146;12.844;2023-08-21T06:55:48;2.75;;;1.85;;
22186;SDS011;11259;52.146;12.844;2023-08-21T06:58:13;2.63;;;2.03;;
22186;SDS011;11259;52.146;12.844;2023-08-21T07:00:38;1.67;;;1.58;;
22186;SDS011;11259;52.146;12.844;2023-08-21T07:03:05;1.70;;;1.60;;
22186;SDS011;11259;52.146;12.844;2023-08-21T07:05:30;2.55;;;1.63;;
22186;SDS011;11259;52.146;12.844;2023-08-21T07:07:56;1.48;;;1.33;;
22186;SDS011;11259;52.146;12.844;2023-08-21T07:10:21;3.08;;;2.10;;
22186;SDS011;11259;52.146;12.844;2023-08-21T07:12:46;1.88;;;1.63;;
22186;SDS011;11259;52.146;12.844;2023-08-21T07:15:12;2.63;;;1.90;;
22186;SDS011;11259;52.146;12.844;2023-08-21T07:17:37;2.22;;;1.92;;
22186;SDS011;11259;52.146;12.844;2023-08-21T07:20:04;7.40;;;2.03;;
22186;SDS011;11259;52.146;12.844;2023-08-21T07:22:31;2.45;;;1.88;;
22186;SDS011;11259;52.146;12.844;2023-08-21T07:24:56;16.40;;;3.60;;
22186;SDS011;11259;52.146;12.844;2023-08-21T07:27:22;2.28;;;1.80;;
22186;SDS011;11259;52.146;12.844;2023-08-21T07:29:47;1.40;;;1.30;;
22186;SDS011;11259;52.146;12.844;2023-08-21T07:32:12;8.20;;;4.55;;
22186;SDS011;11259;52.146;12.844;2023-08-21T07:34:38;3.45;;;2.47;;
22186;SDS011;11259;52.146;12.844;2023-08-21T07:37:06;2.38;;;2.03;;
22186;SDS011;11259;52.146;12.844;2023-08-21T07:39:32;3.33;;;2.30;;
22186;SDS011;11259;52.146;12.844;2023-08-21T07:41:57;2.17;;;1.98;;
22186;SDS011;11259;52.146;12.844;2023-08-21T07:44:23;4.38;;;2.22;;
22186;SDS011;11259;52.146;12.844;2023-08-21T07:46:48;1.95;;;1.70;;
22186;SDS011;11259;52.146;12.844;2023-08-21T07:49:13;2.22;;;1.88;;
22186;SDS011;11259;52.146;12.844;2023-08-21T07:51:39;2.47;;;2.10;;
22186;SDS011;11259;52.146;12.844;2023-08-21T07:54:05;1.92;;;1.70;;
22186;SDS011;11259;52.146;12.844;2023-08-21T07:56:31;2.30;;;1.98;;
22186;SDS011;11259;52.146;12.844;2023-08-21T07:58:56;1.88;;;1.50;;
22186;SDS011;11259;52.146;12.844;2023-08-21T08:01:21;2.15;;;1.67;;
22186;SDS011;11259;52.146;12.844;2023-08-21T08:03:46;3.88;;;1.77;;
22186;SDS011;11259;52.146;12.844;2023-08-21T08:06:12;1.45;;;1.27;;
22186;SDS011;11259;52.146;12.844;2023-08-21T08:08:37;1.73;;;1.42;;
22186;SDS011;11259;52.146;12.844;2023-08-21T08:11:04;1.30;;;1.20;;
22186;SDS011;11259;52.146;12.844;2023-08-21T08:13:29;1.60;;;1.50;;
22186;SDS011;11259;52.146;12.844;2023-08-21T08:15:54;1.48;;;1.38;;
22186;SDS011;11259;52.146;12.844;2023-08-21T08:18:20;1.50;;;1.40;;
22186;SDS011;11259;52.146;12.844;2023-08-21T08:20:45;1.45;;;1.10;;
22186;SDS011;11259;52.146;12.844;2023-08-21T08:23:10;2.22;;;0.98;;
22186;SDS011;11259;52.146;12.844;2023-08-21T08:25:36;1.80;;;1.30;;
22186;SDS011;11259;52.146;12.844;2023-08-21T08:28:03;2.42;;;1.95;;
22186;SDS011;11259;52.146;12.844;2023-08-21T08:30:28;3.65;;;1.75;;
22186;SDS011;11259;52.146;12.844;2023-08-21T08:32:53;1.27;;;1.02;;
22186;SDS011;11259;52.146;12.844;2023-08-21T08:35:19;1.10;;;1.00;;
22186;SDS011;11259;52.146;12.844;2023-08-21T08:37:44;1.25;;;1.15;;
22186;SDS011;11259;52.146;12.844;2023-08-21T08:40:10;1.30;;;1.20;;
22186;SDS011;11259;52.146;12.844;2023-08-21T08:42:36;1.60;;;1.20;;
22186;SDS011;11259;52.146;12.844;2023-08-21T08:45:03;2.50;;;1.50;;
22186;SDS011;11259;52.146;12.844;2023-08-21T08:47:29;1.50;;;1.25;;
22186;SDS011;11259;52.146;12.844;2023-08-21T08:49:56;2.17;;;1.50;;
22186;SDS011;11259;52.146;12.844;2023-08-21T08:52:23;1.85;;;1.35;;
22186;SDS011;11259;52.146;12.844;2023-08-21T08:54:51;1.58;;;1.00;;
22186;SDS011;11259;52.146;12.844;2023-08-21T08:57:16;0.60;;;0.60;;
22186;SDS011;11259;52.146;12.844;2023-08-21T08:59:41;0.93;;;0.90;;
22186;SDS011;11259;52.146;12.844;2023-08-21T09:02:08;1.00;;;0.80;;
22186;SDS011;11259;52.146;12.844;2023-08-21T09:04:33;0.70;;;0.70;;
22186;SDS011;11259;52.146;12.844;2023-08-21T09:07:05;1.10;;;0.90;;
22186;SDS011;11259;52.146;12.844;2023-08-21T09:09:37;0.70;;;0.70;;
22186;SDS011;11259;52.146;12.844;2023-08-21T09:12:06;2.03;;;0.85;;
22186;SDS011;11259;52.146;12.844;2023-08-21T09:14:34;1.35;;;1.00;;
22186;SDS011;11259;52.146;12.844;2023-08-21T09:17:00;1.55;;;1.15;;
22186;SDS011;11259;52.146;12.844;2023-08-21T09:19:27;2.67;;;1.00;;
22186;SDS011;11259;52.146;12.844;2023-08-21T09:21:52;0.60;;;0.60;;
22186;SDS011;11259;52.146;12.844;2023-08-21T09:24:17;1.35;;;0.93;;
22186;SDS011;11259;52.146;12.844;2023-08-21T09:26:43;0.77;;;0.77;;
22186;SDS011;11259;52.146;12.844;2023-08-21T09:29:08;0.82;;;0.82;;
22186;SDS011;11259;52.146;12.844;2023-08-21T09:31:33;2.53;;;1.25;;
22186;SDS011;11259;52.146;12.844;2023-08-21T09:34:02;0.70;;;0.70;;
22186;SDS011;11259;52.146;12.844;2023-08-21T09:36:29;0.60;;;0.60;;
22186;SDS011;11259;52.146;12.844;2023-08-21T09:38:54;0.50;;;0.50;;
22186;SDS011;11259;52.146;12.844;2023-08-21T09:41:20;1.17;;;0.82;;
22186;SDS011;11259;52.146;12.844;2023-08-21T09:43:45;0.40;;;0.40;;
22186;SDS011;11259;52.146;12.844;2023-08-21T09:46:13;0.85;;;0.70;;
22186;SDS011;11259;52.146;12.844;2023-08-21T09:48:39;0.63;;;0.57;;
22186;SDS011;11259;52.146;12.844;2023-08-21T09:51:05;0.68;;;0.60;;
22186;SDS011;11259;52.146;12.844;2023-08-21T09:53:31;0.55;;;0.52;;
22186;SDS011;11259;52.146;12.844;2023-08-21T09:55:57;0.47;;;0.47;;
22186;SDS011;11259;52.146;12.844;2023-08-21T09:58:23;2.47;;;0.80;;
22186;SDS011;11259;52.146;12.844;2023-08-21T10:00:49;0.68;;;0.65;;
22186;SDS011;11259;52.146;12.844;2023-08-21T10:03:16;2.60;;;1.35;;
22186;SDS011;11259;52.146;12.844;2023-08-21T10:05:45;1.17;;;0.77;;
22186;SDS011;11259;52.146;12.844;2023-08-21T10:08:12;0.98;;;0.80;;
22186;SDS011;11259;52.146;12.844;2023-08-21T10:10:40;0.88;;;0.50;;
22186;SDS011;11259;52.146;12.844;2023-08-21T10:13:07;0.50;;;0.50;;
22186;SDS011;11259;52.146;12.844;2023-08-21T10:15:33;0.50;;;0.50;;
22186;SDS011;11259;52.146;12.844;2023-08-21T10:17:59;0.70;;;0.70;;
22186;SDS011;11259;52.146;12.844;2023-08-21T10:20:42;0.50;;;0.50;;
22186;SDS011;11259;52.146;12.844;2023-08-21T10:23:08;1.25;;;0.63;;
22186;SDS011;11259;52.146;12.844;2023-08-21T10:25:33;1.10;;;0.60;;
22186;SDS011;11259;52.146;12.844;2023-08-21T10:28:07;0.50;;;0.50;;
22186;SDS011;11259;52.146;12.844;2023-08-21T10:30:33;0.65;;;0.65;;
22186;SDS011;11259;52.146;12.844;2023-08-21T10:32:58;0.40;;;0.40;;
22186;SDS011;11259;52.146;12.844;2023-08-21T10:35:25;12.52;;;1.15;;
22186;SDS011;11259;52.146;12.844;2023-08-21T10:38:05;1.27;;;0.60;;
22186;SDS011;11259;52.146;12.844;2023-08-21T10:40:34;0.50;;;0.50;;
22186;SDS011;11259;52.146;12.844;2023-08-21T10:43:02;1.70;;;0.65;;
22186;SDS011;11259;52.146;12.844;2023-08-21T10:45:28;1.10;;;0.88;;
22186;SDS011;11259;52.146;12.844;2023-08-21T10:47:56;0.40;;;0.40;;
22186;SDS011;11259;52.146;12.844;2023-08-21T10:50:22;0.57;;;0.57;;
22186;SDS011;11259;52.146;12.844;2023-08-21T10:52:47;0.50;;;0.50;;
22186;SDS011;11259;52.146;12.844;2023-08-21T10:55:16;0.60;;;0.60;;
22186;SDS011;11259;52.146;12.844;2023-08-21T10:57:42;0.50;;;0.50;;
22186;SDS011;11259;52.146;12.844;2023-08-21T11:00:11;5.70;;;0.95;;
22186;SDS011;11259;52.146;12.844;2023-08-21T11:02:38;1.38;;;0.75;;
22186;SDS011;11259;52.146;12.844;2023-08-21T11:05:04;0.73;;;0.70;;
22186;SDS011;11259;52.146;12.844;2023-08-21T11:07:31;2.17;;;0.63;;
22186;SDS011;11259;52.146;12.844;2023-08-21T11:10:01;1.15;;;0.90;;
22186;SDS011;11259;52.146;12.844;2023-08-21T11:12:27;2.33;;;0.43;;
22186;SDS011;11259;52.146;12.844;2023-08-21T11:14:53;0.95;;;0.70;;
22186;SDS011;11259;52.146;12.844;2023-08-21T11:17:19;0.50;;;0.50;;
22186;SDS011;11259;52.146;12.844;2023-08-21T11:19:45;0.40;;;0.40;;
22186;SDS011;11259;52.146;12.844;2023-08-21T11:22:10;0.40;;;0.40;;
22186;SDS011;11259;52.146;12.844;2023-08-21T11:24:39;0.68;;;0.68;;
22186;SDS011;11259;52.146;12.844;2023-08-21T11:27:06;1.02;;;0.80;;
22186;SDS011;11259;52.146;12.844;2023-08-21T11:29:32;0.40;;;0.40;;
22186;SDS011;11259;52.146;12.844;2023-08-21T11:32:01;1.30;;;0.57;;
22186;SDS011;11259;52.146;12.844;2023-08-21T11:34:29;0.50;;;0.50;;
22186;SDS011;11259;52.146;12.844;2023-08-21T11:36:54;0.55;;;0.55;;
22186;SDS011;11259;52.146;12.844;2023-08-21T11:39:19;1.85;;;1.05;;
22186;SDS011;11259;52.146;12.844;2023-08-21T11:41:54;0.57;;;0.57;;
22186;SDS011;11259;52.146;12.844;2023-08-21T11:44:19;0.85;;;0.60;;
22186;SDS011;11259;52.146;12.844;2023-08-21T11:46:45;0.60;;;0.50;;
22186;SDS011;11259;52.146;12.844;2023-08-21T11:49:10;1.13;;;0.60;;
22186;SDS011;11259;52.146;12.844;2023-08-21T11:51:39;0.47;;;0.47;;
22186;SDS011;11259;52.146;12.844;2023-08-21T11:54:04;0.60;;;0.60;;
22186;SDS011;11259;52.146;12.844;2023-08-21T11:56:30;0.70;;;0.70;;
22186;SDS011;11259;52.146;12.844;2023-08-21T11:58:56;1.00;;;0.60;;
22186;SDS011;11259;52.146;12.844;2023-08-21T12:01:22;0.95;;;0.63;;
22186;SDS011;11259;52.146;12.844;2023-08-21T12:03:47;0.57;;;0.57;;
22186;SDS011;11259;52.146;12.844;2023-08-21T12:06:12;0.70;;;0.68;;
22186;SDS011;11259;52.146;12.844;2023-08-21T12:08:39;0.75;;;0.75;;
22186;SDS011;11259;52.146;12.844;2023-08-21T12:11:06;1.95;;;0.90;;
22186;SDS011;11259;52.146;12.844;2023-08-21T12:13:32;1.30;;;0.90;;
22186;SDS011;11259;52.146;12.844;2023-08-21T12:15:57;0.55;;;0.50;;
22186;SDS011;11259;52.146;12.844;2023-08-21T12:18:23;1.65;;;0.85;;
22186;SDS011;11259;52.146;12.844;2023-08-21T12:20:48;0.65;;;0.65;;
22186;SDS011;11259;52.146;12.844;2023-08-21T12:23:14;0.60;;;0.60;;
22186;SDS011;11259;52.146;12.844;2023-08-21T12:25:40;0.63;;;0.55;;
22186;SDS011;11259;52.146;12.844;2023-08-21T12:28:06;6.95;;;1.50;;
22186;SDS011;11259;52.146;12.844;2023-08-21T12:30:31;14.63;;;0.95;;
22186;SDS011;11259;52.146;12.844;2023-08-21T12:32:56;0.45;;;0.45;;
22186;SDS011;11259;52.146;12.844;2023-08-21T12:35:22;0.80;;;0.80;;
22186;SDS011;11259;52.146;12.844;2023-08-21T12:37:47;0.68;;;0.68;;
22186;SDS011;11259;52.146;12.844;2023-08-21T12:40:12;0.63;;;0.63;;
22186;SDS011;11259;52.146;12.844;2023-08-21T12:42:39;0.70;;;0.70;;
22186;SDS011;11259;52.146;12.844;2023-08-21T12:45:05;0.60;;;0.60;;
22186;SDS011;11259;52.146;12.844;2023-08-21T12:47:31;0.55;;;0.55;;
22186;SDS011;11259;52.146;12.844;2023-08-21T12:49:56;2.70;;;1.00;;
22186;SDS011;11259;52.146;12.844;2023-08-21T12:52:21;0.80;;;0.60;;
22186;SDS011;11259;52.146;12.844;2023-08-21T12:54:47;0.90;;;0.68;;
22186;SDS011;11259;52.146;12.844;2023-08-21T12:57:12;0.50;;;0.50;;
22186;SDS011;11259;52.146;12.844;2023-08-21T12:59:39;0.50;;;0.50;;
22186;SDS011;11259;52.146;12.844;2023-08-21T13:02:04;0.50;;;0.50;;
22186;SDS011;11259;52.146;12.844;2023-08-21T13:04:30;0.88;;;0.80;;
22186;SDS011;11259;52.146;12.844;2023-08-21T13:06:55;2.35;;;0.80;;
22186;SDS011;11259;52.146;12.844;2023-08-21T13:09:20;1.08;;;0.65;;
22186;SDS011;11259;52.146;12.844;2023-08-21T13:11:46;2.25;;;0.90;;
22186;SDS011;11259;52.146;12.844;2023-08-21T13:14:11;0.77;;;0.70;;
22186;SDS011;11259;52.146;12.844;2023-08-21T13:16:38;1.15;;;0.70;;
22186;SDS011;11259;52.146;12.844;2023-08-21T13:19:03;0.50;;;0.50;;
22186;SDS011;11259;52.146;12.844;2023-08-21T13:21:28;0.93;;;0.50;;
22186;SDS011;11259;52.146;12.844;2023-08-21T13:23:54;3.80;;;1.45;;
22186;SDS011;11259;52.146;12.844;2023-08-21T13:26:19;0.50;;;0.50;;
22186;SDS011;11259;52.146;12.844;2023-08-21T13:28:44;0.50;;;0.50;;
22186;SDS011;11259;52.146;12.844;2023-08-21T13:31:10;1.38;;;0.63;;
22186;SDS011;11259;52.146;12.844;2023-08-21T13:33:44;1.65;;;0.80;;
22186;SDS011;11259;52.146;12.844;2023-08-21T13:36:10;10.02;;;0.75;;
22186;SDS011;11259;52.146;12.844;2023-08-21T13:38:35;0.65;;;0.65;;
22186;SDS011;11259;52.146;12.844;2023-08-21T13:41:01;0.60;;;0.60;;
22186;SDS011;11259;52.146;12.844;2023-08-21T13:43:26;0.70;;;0.70;;
22186;SDS011;11259;52.146;12.844;2023-08-21T13:45:51;0.70;;;0.70;;
22186;SDS011;11259;52.146;12.844;2023-08-21T13:48:17;1.38;;;0.52;;
22186;SDS011;11259;52.146;12.844;2023-08-21T13:50:43;0.60;;;0.60;;
22186;SDS011;11259;52.146;12.844;2023-08-21T13:53:09;0.50;;;0.50;;
22186;SDS011;11259;52.146;12.844;2023-08-21T13:55:34;0.60;;;0.60;;
22186;SDS011;11259;52.146;12.844;2023-08-21T13:57:59;0.57;;;0.57;;
22186;SDS011;11259;52.146;12.844;2023-08-21T14:00:25;0.85;;;0.75;;
22186;SDS011;11259;52.146;12.844;2023-08-21T14:02:50;0.45;;;0.45;;
22186;SDS011;11259;52.146;12.844;2023-08-21T14:05:16;0.70;;;0.70;;
22186;SDS011;11259;52.146;12.844;2023-08-21T14:07:42;0.90;;;0.70;;
22186;SDS011;11259;52.146;12.844;2023-08-21T14:10:08;0.52;;;0.52;;
22186;SDS011;11259;52.146;12.844;2023-08-21T14:12:34;1.15;;;0.60;;
22186;SDS011;11259;52.146;12.844;2023-08-21T14:14:59;0.60;;;0.60;;
22186;SDS011;11259;52.146;12.844;2023-08-21T14:17:25;0.40;;;0.40;;
22186;SDS011;11259;52.146;12.844;2023-08-21T14:19:50;0.68;;;0.68;;
22186;SDS011;11259;52.146;12.844;2023-08-21T14:22:16;0.47;;;0.47;;
22186;SDS011;11259;52.146;12.844;2023-08-21T14:24:42;0.85;;;0.85;;
22186;SDS011;11259;52.146;12.844;2023-08-21T14:27:08;0.85;;;0.60;;
22186;SDS011;11259;52.146;12.844;2023-08-21T14:29:33;0.40;;;0.40;;